New York, New York
Traffic Map
Current Weather Conditions
New York, New York
Overcast
Overcast
14°
Feels Like: 14°
Wind Chill: 14° Ceiling: 2900
Heat Index: 14° Visibility: 10mi
Dew Point: Wind: 3mph
Humidity: 67% Direction: 240° (WSW)
Pressure: 29.51in Gusts: 0mph
Raw Report DataKJRB 230755Z AUTO 24003KT 10SM BKN029 BKN048 OVC085 14/08 A2951 RMK AO1
Traffic Incident Summary
Active as of:
Severity:
Category:
InformationThere was an issue retrieving the traffic information for this location. Please try a different location or try again shortly.
Advertisements
At Last! Intellicast now available for iPhone and Android